Time;durP1;ratioP1;P1;durP2;ratioP2;P2;SDS_P1;SDS_P2;PMS_P1;PMS_P2;Temp;Humidity;BMP_temperature;BMP_pressure;BME280_temperature;BME280_humidity;BME280_pressure;Samples;Min_cycle;Max_cycle;Signal;HPM_P1;HPM_P2
2023/09/28 00:00:45;;;;;;;15.85;5.32;;;;;;;18.23;100.00;101158.13;5092632;28;20027;-74
2023/09/28 00:02:47;;;;;;;18.00;5.60;;;;;;;18.25;100.00;101166.09;5080048;28;20412;-75
2023/09/28 00:05:14;;;;;;;16.63;5.38;;;;;;;18.19;100.00;101168.91;5092661;28;20031;-74
2023/09/28 00:07:43;;;;;;;16.60;5.30;;;;;;;18.18;100.00;101161.81;5093093;28;20429;-74
2023/09/28 00:10:11;;;;;;;15.55;5.22;;;;;;;18.12;100.00;101166.38;5087458;28;20016;-74
2023/09/28 00:12:41;;;;;;;16.17;5.20;;;;;;;18.12;100.00;101166.38;5088461;28;20031;-74
2023/09/28 00:15:08;;;;;;;16.35;5.20;;;;;;;18.11;100.00;101163.72;5088623;28;20032;-73
2023/09/28 00:17:34;;;;;;;15.93;5.10;;;;;;;18.05;100.00;101169.22;5092532;28;20067;-74
2023/09/28 00:20:00;;;;;;;15.77;5.07;;;;;;;18.08;100.00;101166.47;5092400;28;20498;-74
2023/09/28 00:22:25;;;;;;;16.25;4.90;;;;;;;18.10;100.00;101164.63;5092627;28;20093;-74
2023/09/28 00:24:50;;;;;;;15.25;4.70;;;;;;;18.16;100.00;101182.34;5092416;28;20025;-73
2023/09/28 00:27:16;;;;;;;14.60;4.80;;;;;;;18.16;100.00;101180.56;5092287;28;20048;-73
2023/09/28 00:29:41;;;;;;;16.55;4.90;;;;;;;18.11;100.00;101180.69;5092636;28;20039;-73
2023/09/28 00:32:07;;;;;;;14.00;4.78;;;;;;;18.14;100.00;101185.06;5088274;28;20597;-74
2023/09/28 00:34:33;;;;;;;15.48;4.82;;;;;;;18.18;100.00;101191.22;5092188;28;20031;-74
2023/09/28 00:36:58;;;;;;;15.38;4.80;;;;;;;18.24;100.00;101183.94;5092501;28;20024;-74
2023/09/28 00:39:24;;;;;;;13.18;4.55;;;;;;;18.21;100.00;101188.50;5091418;28;20093;-74
2023/09/28 00:41:49;;;;;;;15.45;4.60;;;;;;;18.12;100.00;101192.25;5092203;28;20094;-73
2023/09/28 00:44:15;;;;;;;15.85;4.95;;;;;;;18.06;100.00;101192.38;5091247;28;20039;-74
2023/09/28 00:46:42;;;;;;;15.57;4.90;;;;;;;18.02;100.00;101202.25;5094155;28;20032;-74
2023/09/28 00:49:11;;;;;;;15.13;4.68;;;;;;;18.00;100.00;101201.41;5092207;28;20398;-66
2023/09/28 00:51:39;;;;;;;14.32;4.55;;;;;;;17.98;100.00;101197.00;5092111;28;20066;-66
2023/09/28 00:54:06;;;;;;;15.23;4.78;;;;;;;17.98;100.00;101199.69;5095836;28;20520;-65
2023/09/28 00:56:31;;;;;;;14.40;4.75;;;;;;;17.94;100.00;101186.38;5095819;28;20040;-66
2023/09/28 00:58:59;;;;;;;16.27;4.85;;;;;;;17.94;100.00;101196.19;5096056;28;20440;-66
2023/09/28 01:01:29;;;;;;;15.35;5.00;;;;;;;17.91;100.00;101188.22;5095813;28;20470;-66
2023/09/28 01:03:56;;;;;;;17.10;5.05;;;;;;;17.87;100.00;101182.03;5095699;28;20024;-66
2023/09/28 01:06:24;;;;;;;15.32;5.03;;;;;;;17.85;100.00;101180.28;5095924;28;20024;-67
2023/09/28 01:08:50;;;;;;;16.77;5.20;;;;;;;17.81;100.00;101175.91;5095724;28;20031;-66
2023/09/28 01:11:17;;;;;;;15.68;5.15;;;;;;;17.77;100.00;101192.03;5095672;28;20032;-65
2023/09/28 01:13:42;;;;;;;17.33;5.03;;;;;;;17.75;100.00;101199.19;5095804;28;20062;-67
2023/09/28 01:16:07;;;;;;;17.73;4.82;;;;;;;17.76;100.00;101195.59;5094171;28;20063;-65
2023/09/28 01:18:33;;;;;;;14.32;5.00;;;;;;;17.79;100.00;101192.00;5095673;28;20032;-66
2023/09/28 01:20:59;;;;;;;15.45;5.20;;;;;;;17.75;100.00;101192.94;5095600;28;20108;-65
2023/09/28 01:23:26;;;;;;;16.05;4.90;;;;;;;17.73;100.00;101197.47;5095455;28;20028;-67
2023/09/28 01:25:52;;;;;;;16.33;5.28;;;;;;;17.68;100.00;101202.00;5095241;28;20048;-63
2023/09/28 01:28:17;;;;;;;17.75;5.03;;;;;;;17.63;100.00;101204.78;5095446;28;20035;-65
2023/09/28 01:30:43;;;;;;;15.13;4.88;;;;;;;17.60;100.00;101199.50;5095241;28;20020;-66
2023/09/28 01:33:09;;;;;;;16.30;5.15;;;;;;;17.58;100.00;101202.19;5095197;28;20028;-64
2023/09/28 01:35:34;;;;;;;17.08;5.22;;;;;;;17.53;100.00;101198.75;5095229;28;20039;-65
2023/09/28 01:38:23;;;;;;;15.52;5.10;;;;;;;17.47;100.00;101197.97;5095173;28;20459;-64
2023/09/28 01:40:50;;;;;;;17.33;5.07;;;;;;;17.42;100.00;101190.91;5092488;28;20035;-66
2023/09/28 01:43:16;;;;;;;17.48;5.55;;;;;;;17.38;100.00;101199.88;5094979;28;20536;-66
2023/09/28 01:45:42;;;;;;;17.02;5.35;;;;;;;17.34;100.00;101213.34;5095186;28;20031;-66
2023/09/28 01:48:08;;;;;;;15.40;5.15;;;;;;;17.28;100.00;101211.66;5090752;28;20028;-65
2023/09/28 01:50:34;;;;;;;17.80;5.22;;;;;;;17.27;100.00;101212.59;5095217;28;20024;-64
2023/09/28 01:53:00;;;;;;;17.40;5.22;;;;;;;17.23;100.00;101211.75;5095040;28;20035;-66
2023/09/28 01:55:25;;;;;;;16.58;5.20;;;;;;;17.28;100.00;101211.66;5094661;28;20036;-66
2023/09/28 01:57:51;;;;;;;18.02;5.30;;;;;;;17.28;100.00;101208.97;5094356;28;20107;-62
2023/09/28 02:00:21;;;;;;;15.05;5.05;;;;;;;17.26;100.00;101216.16;5094776;28;20026;-66
2023/09/28 02:02:48;;;;;;;17.40;5.40;;;;;;;17.22;100.00;101217.13;5094661;28;20537;-66
2023/09/28 02:05:17;;;;;;;16.60;5.75;;;;;;;17.17;100.00;101218.97;5094617;28;20024;-67
2023/09/28 02:07:44;;;;;;;15.73;5.35;;;;;;;17.12;100.00;101228.88;5094884;28;20035;-66
2023/09/28 02:10:10;;;;;;;17.15;5.60;;;;;;;17.07;100.00;101242.31;5094577;28;20098;-64
2023/09/28 02:12:39;;;;;;;15.77;5.20;;;;;;;17.06;100.00;101237.84;5094456;28;20028;-67
2023/09/28 02:15:06;;;;;;;17.10;5.50;;;;;;;17.01;100.00;101239.72;5094490;28;20540;-65
2023/09/28 02:17:32;;;;;;;17.33;5.35;;;;;;;16.96;100.00;101247.78;5094602;28;20481;-67
2023/09/28 02:19:57;;;;;;;17.40;5.47;;;;;;;16.95;100.00;101242.47;5094221;28;20028;-64
2023/09/28 02:22:22;;;;;;;16.95;5.45;;;;;;;16.93;100.00;101234.50;5094683;28;20437;-64
2023/09/28 02:24:50;;;;;;;17.80;5.55;;;;;;;16.89;100.00;101238.13;5094171;28;20136;-66
2023/09/28 02:27:17;;;;;;;16.45;5.45;;;;;;;16.83;100.00;101238.19;5093908;28;20181;-65
2023/09/28 02:29:43;;;;;;;16.58;5.32;;;;;;;16.77;100.00;101240.94;5094582;28;20039;-67
2023/09/28 02:32:09;;;;;;;17.30;5.38;;;;;;;16.76;100.00;101247.19;5090074;28;20507;-66
2023/09/28 02:34:34;;;;;;;17.83;5.72;;;;;;;16.70;100.00;101238.38;5093895;28;20079;-64
2023/09/28 02:37:01;;;;;;;17.45;5.60;;;;;;;16.71;100.00;101247.25;5094223;28;20063;-66
2023/09/28 02:39:28;;;;;;;16.33;5.75;;;;;;;16.71;100.00;101247.25;5093881;28;20024;-67
2023/09/28 02:41:54;;;;;;;18.17;5.60;;;;;;;16.64;100.00;101249.13;5093862;28;20032;-66
2023/09/28 02:44:19;;;;;;;16.70;5.45;;;;;;;16.61;100.00;101251.84;5093943;28;20028;-67
2023/09/28 02:46:44;;;;;;;17.60;5.80;;;;;;;16.55;100.00;101244.81;5094162;28;20052;-64
2023/09/28 02:49:10;;;;;;;16.90;5.70;;;;;;;16.48;100.00;101244.91;5094141;28;20024;-67
2023/09/28 02:51:35;;;;;;;17.30;5.75;;;;;;;16.39;100.00;101252.13;5093956;28;20110;-65
2023/09/28 02:54:01;;;;;;;18.17;5.90;;;;;;;16.35;100.00;101252.19;5093932;28;20466;-66
2023/09/28 02:56:26;;;;;;;17.30;6.00;;;;;;;16.34;100.00;101246.00;5093771;28;20115;-67
2023/09/28 02:58:51;;;;;;;18.77;6.15;;;;;;;16.31;100.00;101256.72;5093538;28;20058;-67
2023/09/28 03:01:21;;;;;;;18.42;6.38;;;;;;;16.29;100.00;101252.28;5093601;28;20035;-66
2023/09/28 03:03:46;;;;;;;17.65;5.82;;;;;;;16.27;100.00;101262.97;5093675;28;20371;-64
2023/09/28 03:06:12;;;;;;;19.27;6.25;;;;;;;16.23;100.00;101263.03;5093431;28;20025;-75
2023/09/28 03:08:37;;;;;;;17.73;5.80;;;;;;;16.21;100.00;101269.28;5092682;28;20089;-72
2023/09/28 03:11:03;;;;;;;17.85;6.13;;;;;;;16.24;100.00;101271.03;5093468;28;20032;-74
2023/09/28 03:13:28;;;;;;;18.08;5.88;;;;;;;16.21;100.00;101277.28;5093579;28;20035;-75
2023/09/28 03:15:54;;;;;;;18.00;6.10;;;;;;;16.16;100.00;101284.47;5092196;28;20527;-75
2023/09/28 03:18:20;;;;;;;18.00;6.07;;;;;;;16.13;100.00;101279.13;5093303;28;20567;-75
2023/09/28 03:20:45;;;;;;;17.95;6.00;;;;;;;16.11;100.00;101270.28;5093459;28;20056;-75
2023/09/28 03:23:14;;;;;;;18.52;6.40;;;;;;;16.14;100.00;101280.03;5093123;28;20463;-75
2023/09/28 03:25:39;;;;;;;18.60;6.30;;;;;;;16.07;100.00;101283.69;5089296;28;20028;-75
2023/09/28 03:28:05;;;;;;;17.85;6.18;;;;;;;16.01;100.00;101288.16;5093127;28;20494;-75
2023/09/28 03:30:31;;;;;;;18.60;6.30;;;;;;;15.90;100.00;101287.44;5092932;28;20059;-75
2023/09/28 03:32:56;;;;;;;19.90;6.60;;;;;;;15.85;100.00;101300.78;5093180;28;20028;-75
2023/09/28 03:35:22;;;;;;;19.80;6.68;;;;;;;15.83;100.00;101297.25;5092825;28;20119;-75
2023/09/28 03:37:53;;;;;;;18.30;6.55;;;;;;;15.79;100.00;101299.97;5092858;28;20182;-74
2023/09/28 03:40:19;;;;;;;17.92;6.65;;;;;;;15.76;100.00;101297.31;5093065;28;20077;-72
2023/09/28 03:42:49;;;;;;;18.25;6.68;;;;;;;15.78;100.00;101311.50;5092854;28;20032;-73
2023/09/28 03:45:20;;;;;;;17.25;6.47;;;;;;;15.75;100.00;101323.06;5092867;28;20182;-75
2023/09/28 03:47:48;;;;;;;18.45;6.70;;;;;;;15.69;100.00;101331.13;5093033;28;20046;-75
2023/09/28 03:50:13;;;;;;;20.20;6.93;;;;;;;15.64;100.00;101335.59;5092998;28;20028;-70
2023/09/28 03:52:40;;;;;;;17.88;6.72;;;;;;;15.68;100.00;101335.56;5088805;28;20498;-75
2023/09/28 03:55:10;;;;;;;17.70;6.35;;;;;;;15.67;100.00;101327.59;5092787;28;20085;-75
2023/09/28 03:57:35;;;;;;;18.90;6.57;;;;;;;15.66;100.00;101329.34;5092706;28;20449;-70
2023/09/28 04:00:06;;;;;;;18.75;6.60;;;;;;;15.66;100.00;101328.47;5092613;28;20115;-75
2023/09/28 04:02:32;;;;;;;18.88;7.10;;;;;;;15.59;100.00;101335.63;5092696;28;20035;-75
2023/09/28 04:04:57;;;;;;;17.80;6.78;;;;;;;15.62;100.00;101332.94;5092773;28;20367;-72
2023/09/28 04:07:23;;;;;;;18.00;6.90;;;;;;;15.63;100.00;101340.03;5092557;28;20446;-75
2023/09/28 04:09:48;;;;;;;18.88;6.57;;;;;;;15.61;100.00;101340.94;5092814;28;20461;-75
2023/09/28 04:12:14;;;;;;;20.67;7.53;;;;;;;15.55;100.00;101344.53;5092779;28;20436;-75
2023/09/28 04:14:39;;;;;;;20.33;7.40;;;;;;;15.48;100.00;101348.19;5092480;28;20110;-73
2023/09/28 04:17:05;;;;;;;20.05;7.15;;;;;;;15.42;100.00;101338.47;5092935;28;20060;-74
2023/09/28 04:19:30;;;;;;;19.33;7.30;;;;;;;15.45;100.00;101341.09;5092566;28;20111;-75
2023/09/28 04:21:56;;;;;;;19.08;7.28;;;;;;;15.40;100.00;101342.03;5096581;28;20112;-71
2023/09/28 04:24:21;;;;;;;18.65;7.43;;;;;;;15.34;100.00;101335.84;5096647;28;20040;-75
2023/09/28 04:26:47;;;;;;;18.35;7.00;;;;;;;15.32;100.00;101339.44;5095043;28;20074;-75
2023/09/28 04:29:12;;;;;;;19.25;7.22;;;;;;;15.22;100.00;101341.25;5096513;28;20046;-75
2023/09/28 04:31:37;;;;;;;19.45;7.38;;;;;;;15.17;100.00;101343.06;5096473;28;20028;-73
2023/09/28 04:34:03;;;;;;;18.83;7.32;;;;;;;15.12;100.00;101348.41;5096344;28;20077;-75
2023/09/28 04:36:29;;;;;;;19.85;7.57;;;;;;;15.08;100.00;101357.31;5096176;28;20115;-74
2023/09/28 04:38:54;;;;;;;19.75;7.60;;;;;;;14.99;100.00;101344.94;5096443;28;20024;-74
2023/09/28 04:41:20;;;;;;;18.65;7.93;;;;;;;14.95;100.00;101356.50;5096206;28;20032;-75
2023/09/28 04:43:45;;;;;;;19.83;7.63;;;;;;;14.85;100.00;101357.44;5096297;28;20028;-74
2023/09/28 04:46:11;;;;;;;20.55;7.95;;;;;;;14.85;100.00;101362.78;5096292;28;20047;-75
2023/09/28 04:48:37;;;;;;;19.38;7.43;;;;;;;14.79;100.00;101374.34;5095955;28;20104;-67
2023/09/28 04:51:03;;;;;;;20.27;8.18;;;;;;;14.77;100.00;101369.94;5096176;28;20020;-75
2023/09/28 04:53:29;;;;;;;18.92;7.65;;;;;;;14.72;100.00;101375.28;5095943;28;20034;-72
2023/09/28 04:55:54;;;;;;;19.55;7.72;;;;;;;14.75;100.00;101366.38;5096129;28;20028;-75
2023/09/28 04:58:19;;;;;;;20.27;8.38;;;;;;;14.77;100.00;101367.28;5096120;28;20028;-75
2023/09/28 05:00:45;;;;;;;20.08;8.18;;;;;;;14.76;100.00;101373.47;5096135;28;20024;-74
2023/09/28 05:03:11;;;;;;;19.45;7.70;;;;;;;14.75;100.00;101387.66;5096075;28;20032;-75
2023/09/28 05:05:36;;;;;;;19.13;7.70;;;;;;;14.77;100.00;101393.88;5095960;28;20024;-63
2023/09/28 05:08:02;;;;;;;19.30;7.47;;;;;;;14.78;100.00;101404.50;5095581;28;20778;-66
2023/09/28 05:10:28;;;;;;;19.60;7.30;;;;;;;14.77;100.00;101405.41;5095568;28;20051;-66
2023/09/28 05:12:53;;;;;;;19.52;7.38;;;;;;;14.77;100.00;101402.72;5095798;28;20471;-66
2023/09/28 05:15:19;;;;;;;20.75;6.97;;;;;;;14.78;100.00;101409.84;5095696;28;20040;-65
2023/09/28 05:17:44;;;;;;;21.73;7.20;;;;;;;14.73;100.00;101405.41;5095594;28;20135;-66
2023/09/28 05:20:11;;;;;;;19.10;6.82;;;;;;;14.67;100.00;101410.78;5091448;28;20477;-66
2023/09/28 05:22:37;;;;;;;19.63;7.07;;;;;;;14.63;100.00;101420.53;5095623;28;20044;-65
2023/09/28 05:25:03;;;;;;;19.35;6.60;;;;;;;14.57;100.00;101424.06;5095626;28;20033;-65
2023/09/28 05:27:28;;;;;;;19.35;7.10;;;;;;;14.46;100.00;101423.22;5094201;28;20054;-64
2023/09/28 05:29:54;;;;;;;20.60;6.82;;;;;;;14.42;100.00;101437.41;5095250;28;20043;-66
2023/09/28 05:32:19;;;;;;;19.25;6.93;;;;;;;14.36;100.00;101442.72;5094617;28;20059;-63
2023/09/28 05:34:46;;;;;;;20.17;6.40;;;;;;;14.29;100.00;101437.41;5095275;28;20420;-66
2023/09/28 05:37:12;;;;;;;20.60;7.00;;;;;;;14.22;100.00;101435.66;5095115;28;20039;-65
2023/09/28 05:39:37;;;;;;;21.63;7.05;;;;;;;14.21;100.00;101446.28;5091390;28;20035;-60
2023/09/28 05:42:03;;;;;;;21.67;7.07;;;;;;;14.24;100.00;101443.63;5091617;28;20078;-66
2023/09/28 05:44:30;;;;;;;19.73;7.10;;;;;;;14.23;100.00;101441.88;5093520;28;20035;-62
2023/09/28 05:46:55;;;;;;;21.98;7.00;;;;;;;14.20;100.00;101448.09;5094687;28;20031;-61
2023/09/28 05:49:20;;;;;;;20.02;6.60;;;;;;;14.19;100.00;101458.72;5094512;28;20099;-60
2023/09/28 05:51:46;;;;;;;19.38;6.63;;;;;;;14.18;100.00;101455.16;5094881;28;20463;-62
2023/09/28 05:54:11;;;;;;;19.92;7.13;;;;;;;14.18;100.00;101455.16;5094812;28;20475;-62
2023/09/28 05:56:36;;;;;;;19.77;6.82;;;;;;;14.20;100.00;101458.72;5094550;28;20062;-60
2023/09/28 05:59:02;;;;;;;21.45;7.20;;;;;;;14.21;100.00;101467.56;5090140;28;20032;-61
2023/09/28 06:01:29;;;;;;;21.17;7.25;;;;;;;14.16;100.00;101480.88;5094915;28;20032;-63
2023/09/28 06:03:54;;;;;;;20.75;7.28;;;;;;;14.13;100.00;101478.22;5094336;28;20028;-60
2023/09/28 06:06:22;;;;;;;21.33;7.28;;;;;;;14.03;100.00;101481.75;5094416;28;20521;-59
2023/09/28 06:08:48;;;;;;;19.40;6.80;;;;;;;14.02;100.00;101479.97;5094652;28;20035;-62
2023/09/28 06:11:14;;;;;;;21.05;7.10;;;;;;;14.06;100.00;101477.31;5094198;28;20032;-60
2023/09/28 06:13:41;;;;;;;21.95;7.10;;;;;;;14.08;100.00;101479.97;5094309;28;20035;-62
2023/09/28 06:16:08;;;;;;;21.98;7.13;;;;;;;14.10;100.00;101471.13;5094378;28;20127;-60
2023/09/28 06:18:35;;;;;;;20.05;7.00;;;;;;;14.17;100.00;101471.09;5094231;28;20437;-60
2023/09/28 06:21:01;;;;;;;21.65;7.18;;;;;;;14.19;100.00;101475.53;5094196;28;20032;-59
2023/09/28 06:23:26;;;;;;;20.60;6.90;;;;;;;14.20;100.00;101472.00;5094094;28;20457;-59
2023/09/28 06:25:52;;;;;;;20.45;6.50;;;;;;;14.22;100.00;101483.53;5093849;28;20040;-60
2023/09/28 06:28:17;;;;;;;21.25;6.78;;;;;;;14.22;100.00;101499.47;5093992;28;20035;-60
2023/09/28 06:30:43;;;;;;;20.75;6.80;;;;;;;14.26;100.00;101501.25;5093539;28;20065;-61
2023/09/28 06:33:08;;;;;;;22.80;6.63;;;;;;;14.27;100.00;101504.78;5093929;28;20085;-63
2023/09/28 06:35:33;;;;;;;21.33;6.75;;;;;;;14.32;100.00;101512.78;5092778;28;20032;-64
2023/09/28 06:38:00;;;;;;;23.17;6.68;;;;;;;14.33;100.00;101512.78;5093911;28;20028;-63
2023/09/28 06:40:26;;;;;;;21.27;6.30;;;;;;;14.37;100.00;101498.59;5093786;28;20493;-63
2023/09/28 06:42:51;;;;;;;21.80;6.05;;;;;;;14.44;100.00;101499.47;5093370;28;20024;-59
2023/09/28 06:45:18;;;;;;;21.95;6.32;;;;;;;14.51;100.00;101498.56;5093346;28;20111;-59
2023/09/28 06:47:44;;;;;;;24.00;6.13;;;;;;;14.58;100.00;101502.13;5093801;28;20385;-75
2023/09/28 06:50:10;;;;;;;20.90;5.70;;;;;;;14.68;100.00;101500.31;5093709;28;20024;-71
2023/09/28 06:52:36;;;;;;;21.33;5.63;;;;;;;14.78;100.00;101518.03;5093420;28;20035;-72
2023/09/28 06:55:04;;;;;;;22.27;5.88;;;;;;;14.89;100.00;101518.03;5093365;28;20359;-73
2023/09/28 06:57:29;;;;;;;22.77;5.60;;;;;;;15.02;100.00;101525.09;5093882;28;20032;-74
2023/09/28 06:59:54;;;;;;;23.27;5.43;;;;;;;15.16;100.00;101527.72;5093361;28;20028;-70
2023/09/28 07:02:20;;;;;;;25.40;5.43;;;;;;;15.31;100.00;101516.97;5088861;28;20030;-75
2023/09/28 07:04:45;;;;;;;23.40;4.95;;;;;;;15.46;100.00;101523.13;5093733;28;20035;-73
2023/09/28 07:07:13;;;;;;;24.15;5.25;;;;;;;15.61;100.00;101535.47;5093035;28;20035;-72
2023/09/28 07:09:39;;;;;;;23.48;5.03;;;;;;;15.73;100.00;101535.41;5089797;28;20028;-71
2023/09/28 07:12:04;;;;;;;22.70;4.82;;;;;;;15.84;100.00;101516.72;5093355;28;20039;-78
2023/09/28 07:14:30;;;;;;;23.23;5.10;;;;;;;15.94;100.00;101515.75;5088590;28;20418;-71
2023/09/28 07:16:55;;;;;;;23.23;5.13;;;;;;;16.08;100.00;101512.13;5093045;28;20285;-71
2023/09/28 07:19:20;;;;;;;22.35;4.88;;;;;;;16.15;100.00;101516.47;5093454;28;20034;-76
2023/09/28 07:21:46;;;;;;;23.25;4.95;;;;;;;16.12;100.00;101521.84;5092848;28;20028;-60
2023/09/28 07:24:12;;;;;;;23.40;4.80;;;;;;;16.09;100.00;101516.53;5092980;28;20051;-60
2023/09/28 07:26:37;;;;;;;21.85;5.10;;;;;;;16.14;100.00;101509.41;5093131;28;20502;-59
2023/09/28 07:29:04;;;;;;;22.52;5.07;;;;;;;16.03;100.00;101507.69;5092868;28;20031;-60
2023/09/28 07:31:29;;;;;;;23.80;5.30;;;;;;;15.93;100.00;101522.00;5092892;28;20490;-60
2023/09/28 07:33:55;;;;;;;22.85;5.20;;;;;;;15.83;100.00;101521.16;5092591;28;20070;-62
2023/09/28 07:36:20;;;;;;;23.08;4.95;;;;;;;15.79;100.00;101540.75;5088715;28;20386;-59
2023/09/28 07:38:47;;;;;;;22.70;5.20;;;;;;;15.92;100.00;101549.53;5092995;28;20474;-61
2023/09/28 07:41:12;;;;;;;23.00;4.85;;;;;;;16.14;100.00;101536.06;5092581;28;20024;-62
2023/09/28 07:43:38;;;;;;;22.33;4.90;;;;;;;16.35;100.00;101546.56;5092746;28;20043;-60
2023/09/28 07:46:03;;;;;;;21.75;4.72;;;;;;;16.59;100.00;101552.56;5093447;28;20066;-61
2023/09/28 07:48:29;;;;;;;22.15;4.70;;;;;;;16.82;100.00;101557.69;5092536;28;20501;-60
2023/09/28 07:50:54;;;;;;;24.52;5.00;;;;;;;16.93;100.00;101546.91;5092607;28;20063;-60
2023/09/28 07:53:20;;;;;;;22.70;4.45;;;;;;;17.12;100.00;101546.72;5092634;28;20398;-60
2023/09/28 07:55:45;;;;;;;23.80;4.85;;;;;;;17.24;100.00;101550.13;5092134;28;20078;-66
2023/09/28 07:58:10;;;;;;;23.65;5.10;;;;;;;17.41;100.00;101552.56;5092558;28;20058;-67
2023/09/28 08:00:36;;;;;;;22.48;4.43;;;;;;;17.54;100.00;101557.75;5084422;28;20422;-60
2023/09/28 08:03:03;;;;;;;23.42;4.93;;;;;;;17.60;100.00;101563.03;5081524;28;20037;-60
2023/09/28 08:05:28;;;;;;;23.63;4.63;;;;;;;17.62;100.00;101558.56;5081303;28;20024;-63
2023/09/28 08:07:54;;;;;;;26.10;5.28;;;;;;;17.85;100.00;101563.56;5083292;28;20043;-61
2023/09/28 08:10:19;;;;;;;23.95;4.70;;;;;;;17.91;100.00;101567.97;5081880;28;20024;-67
2023/09/28 08:12:46;;;;;;;23.33;4.63;;;;;;;18.03;100.00;101573.16;5081252;28;20036;-62
2023/09/28 08:15:12;;;;;;;23.65;4.85;;;;;;;18.18;100.00;101571.13;5082310;28;20082;-77
2023/09/28 08:17:39;;;;;;;24.95;5.10;;;;;;;18.25;100.00;101556.75;5091206;28;20036;-66
2023/09/28 08:20:07;;;;;;;22.30;4.70;;;;;;;18.41;100.00;101563.63;5092557;28;20107;-62
2023/09/28 08:22:34;;;;;;;23.48;4.93;;;;;;;18.51;100.00;101569.69;5092765;28;20449;-81
2023/09/28 08:24:59;;;;;;;23.25;4.25;;;;;;;18.61;100.00;101557.91;5088263;28;20067;-67
2023/09/28 08:27:25;;;;;;;24.92;4.75;;;;;;;18.52;100.00;101559.88;5090796;28;20087;-67
2023/09/28 08:29:51;;;;;;;24.48;4.63;;;;;;;18.78;100.00;101576.34;5091098;28;20020;-60
2023/09/28 08:32:16;;;;;;;23.85;4.68;;;;;;;19.06;100.00;101585.69;5092221;28;20040;-59
2023/09/28 08:34:42;;;;;;;24.80;4.50;;;;;;;18.81;100.00;101565.59;5090799;28;20023;-60
2023/09/28 08:37:08;;;;;;;21.58;4.75;;;;;;;18.86;100.00;101578.00;5081803;28;20468;-60
2023/09/28 08:39:36;;;;;;;25.00;4.75;;;;;;;18.95;100.00;101584.09;5077754;28;20056;-60
2023/09/28 08:42:04;;;;;;;21.98;4.43;;;;;;;18.92;100.00;101592.19;5080809;28;20020;-66
2023/09/28 08:44:35;;;;;;;22.70;5.00;;;;;;;18.64;100.00;101597.16;5082056;28;20031;-68
2023/09/28 08:47:08;;;;;;;22.83;5.33;;;;;;;18.47;100.00;101606.31;5091217;28;20352;-65
2023/09/28 08:49:35;;;;;;;21.63;5.10;;;;;;;18.46;100.00;101601.91;5091916;28;20028;-68
2023/09/28 08:52:02;;;;;;;23.80;5.30;;;;;;;18.45;100.00;101600.13;5092272;28;20486;-63
2023/09/28 08:54:28;;;;;;;24.95;5.90;;;;;;;18.80;100.00;101611.16;5092112;28;20031;-68
2023/09/28 08:56:57;;;;;;;24.70;6.00;;;;;;;19.11;100.00;101611.50;5092365;28;20123;-62
2023/09/28 08:59:28;;;;;;;21.83;5.20;;;;;;;19.29;100.00;101601.31;5083894;28;20102;-77
2023/09/28 09:01:54;;;;;;;24.73;5.85;;;;;;;19.27;100.00;101601.34;5081817;28;20048;-77
2023/09/28 09:04:20;;;;;;;24.75;6.32;;;;;;;19.15;100.00;101610.53;5081621;28;20051;-77
2023/09/28 09:06:46;;;;;;;21.83;5.57;;;;;;;19.00;100.00;101608.13;5083378;28;20478;-66
2023/09/28 09:09:15;;;;;;;23.08;5.82;;;;;;;19.09;100.00;101604.38;5085222;28;20111;-62
2023/09/28 09:11:49;;;;;;;23.60;6.05;;;;;;;19.30;100.00;101612.00;5083387;28;20481;-74
2023/09/28 09:14:15;;;;;;;25.50;6.05;;;;;;;19.20;100.00;101614.91;5084148;28;20397;-72
2023/09/28 09:16:41;;;;;;;24.73;5.93;;;;;;;19.45;100.00;101612.63;5085394;28;20032;-76
2023/09/28 09:19:07;;;;;;;24.70;6.15;;;;;;;19.52;100.00;101608.91;5084009;28;20025;-71
2023/09/28 09:21:40;;;;;;;23.52;6.07;;;;;;;19.47;100.00;101610.78;5089021;28;20024;-70
2023/09/28 09:24:10;;;;;;;24.08;5.97;;;;;;;19.32;100.00;101618.25;5095486;28;20028;-69
2023/09/28 09:26:44;;;;;;;23.17;5.43;;;;;;;19.21;100.00;101612.19;5094900;28;20047;-71
2023/09/28 09:29:10;;;;;;;25.92;5.80;;;;;;;19.33;100.00;101616.44;5095014;28;20028;-69
2023/09/28 09:31:38;;;;;;;22.35;4.80;;;;;;;19.50;100.00;101625.00;5093799;28;20457;-73
2023/09/28 09:34:05;;;;;;;22.67;5.00;;;;;;;19.39;100.00;101629.69;5095326;28;20482;-71
2023/09/28 09:36:30;;;;;;;23.85;5.40;;;;;;;19.49;100.00;101631.28;5095031;28;20043;-69
2023/09/28 09:38:58;;;;;;;22.10;4.70;;;;;;;19.56;100.00;101620.47;5095070;28;20044;-73
2023/09/28 09:41:24;;;;;;;24.48;5.03;;;;;;;19.55;100.00;101624.91;5095027;28;20051;-62
2023/09/28 09:43:51;;;;;;;25.50;4.82;;;;;;;19.98;100.00;101612.38;5090363;28;20500;-67
2023/09/28 09:46:17;;;;;;;21.95;4.57;;;;;;;20.16;100.00;101620.03;5094947;28;20036;-66
2023/09/28 09:48:44;;;;;;;23.08;5.03;;;;;;;20.59;100.00;101619.91;5094977;28;20082;-67
2023/09/28 09:51:14;;;;;;;21.83;4.35;;;;;;;20.99;100.00;101632.34;5095105;28;20047;-67
2023/09/28 09:53:44;;;;;;;22.92;4.95;;;;;;;21.49;100.00;101621.09;5090977;28;20077;-67
2023/09/28 09:56:11;;;;;;;24.52;4.80;;;;;;;21.87;100.00;101638.84;5091182;28;20445;-64
2023/09/28 09:58:41;;;;;;;21.77;4.60;;;;;;;21.14;100.00;101639.09;5095128;28;20055;-66
2023/09/28 10:01:14;;;;;;;24.20;4.65;;;;;;;20.36;100.00;101634.78;5094604;28;20024;-66
2023/09/28 10:03:52;;;;;;;21.60;4.28;;;;;;;20.14;100.00;101629.94;5089693;28;20024;-63
2023/09/28 10:06:22;;;;;;;22.35;4.38;;;;;;;20.64;100.00;101631.44;5090677;28;20093;-65
2023/09/28 10:08:50;;;;;;;25.58;4.93;;;;;;;21.74;100.00;101627.56;5094415;28;20107;-67
2023/09/28 10:11:17;;;;;;;23.23;4.78;;;;;;;22.82;100.00;101617.84;5094362;28;20119;-66
2023/09/28 10:13:43;;;;;;;20.38;4.30;;;;;;;23.66;100.00;101613.91;5094798;28;20032;-68
2023/09/28 10:16:13;;;;;;;22.13;4.20;;;;;;;24.65;100.00;101609.09;5094299;28;20028;-66
2023/09/28 10:18:41;;;;;;;21.58;4.22;;;;;;;24.69;100.00;101611.59;5090203;28;20081;-67
2023/09/28 10:21:07;;;;;;;21.55;4.38;;;;;;;24.43;100.00;101599.16;5094340;28;20024;-67
2023/09/28 10:23:33;;;;;;;22.88;4.20;;;;;;;24.80;100.00;101604.84;5094439;28;20145;-68
2023/09/28 10:26:03;;;;;;;21.27;4.03;;;;;;;24.81;100.00;101587.69;5094085;28;20506;-68
2023/09/28 10:28:28;;;;;;;20.05;4.13;;;;;;;24.85;100.00;101594.72;5094164;28;20053;-67
2023/09/28 10:31:03;;;;;;;22.23;4.38;;;;;;;24.54;100.00;101593.31;5093056;28;20506;-66
2023/09/28 10:33:29;;;;;;;22.35;4.20;;;;;;;24.92;100.00;101604.31;5090716;28;20028;-62
2023/09/28 10:36:11;;;;;;;20.08;4.10;;;;;;;24.76;100.00;101596.00;5089362;28;20063;-62
2023/09/28 10:38:36;;;;;;;20.52;4.10;;;;;;;24.14;100.00;101609.34;5090839;28;20039;-61
2023/09/28 10:41:05;;;;;;;18.92;3.80;;;;;;;24.00;100.00;101607.22;5094320;28;20024;-67
2023/09/28 10:43:39;;;;;;;20.55;3.70;;;;;;;23.53;100.00;101601.78;5082810;28;20119;-59
2023/09/28 10:46:05;;;;;;;19.67;3.80;;;;;;;22.60;100.00;101605.09;5085082;28;20111;-60
2023/09/28 10:48:37;;;;;;;21.45;3.80;;;;;;;23.00;100.00;101612.75;5092347;28;20879;-60
2023/09/28 10:51:16;;;;;;;20.98;3.97;;;;;;;23.53;100.00;101617.13;5093992;28;20059;-60
2023/09/28 10:53:43;;;;;;;21.83;4.25;;;;;;;22.83;100.00;101606.09;5090720;28;20030;-60
2023/09/28 10:56:10;;;;;;;20.98;3.90;;;;;;;23.00;100.00;101612.75;5092493;28;20047;-60
2023/09/28 10:58:37;;;;;;;20.65;4.10;;;;;;;22.72;100.00;101608.31;5089704;28;20390;-63
2023/09/28 11:01:07;;;;;;;20.23;3.90;;;;;;;23.19;100.00;101610.28;5093243;28;20475;-59
2023/09/28 11:03:36;;;;;;;19.48;3.80;;;;;;;22.82;100.00;101620.53;5089332;28;20032;-60
2023/09/28 11:06:06;;;;;;;22.35;4.35;;;;;;;22.42;100.00;101617.34;5089580;28;20027;-60